Arapaho — WCX9424 — position and weather

sailwx.info

Track history (hours):
 
Tides and Currents Weather Stations Pressure Air Temp Water Temp Dewpoint Dewpoint Depression Visibility Wind Speed Wind Dir Waves Ship Positions

Arapaho

Owner: SAUSE BROTHERS OCEAN TOWING CO INC, LONG BEACH, CA. More information available from US FCC via Universal Licensing System and Coast Guard Vessel Documentation Center.

Last reported at 2016-Sep-28 12:07 UTC. Time now 2016-Sep-28 15:29 UTC.
Position N 33°45' W 118°12'.

Length 37 m; draft 1.5 m.

Type: Towing. MMSI: 367004270.

Date/timePositionNaut miles runAvg speedWind from/ knotsBaromVisibWave heightAir tempDewpointWater temp
2016-Sep-28 12:07N 33°45' W 118°12'0 0.0
2016-Sep-28 08:33N 33°45' W 118°12'0 0.0
2016-Sep-28 01:33N 33°44' W 118°12'2 1.2
2016-Sep-27 23:33N 33°45' W 118°10'2 0.2
2016-Sep-27 10:32N 33°45' W 118°12'0 0.0
2016-Sep-26 08:33N 33°45' W 118°12'0 0.0
2016-Sep-26 02:33N 33°45' W 118°12'0 0.0
2016-Sep-26 01:33N 33°45' W 118°12'3 2.7
2016-Sep-26 00:33N 33°45' W 118°09'3 0.9
2016-Sep-25 21:33N 33°45' W 118°12'2 0.4
2016-Sep-25 17:33N 33°46' W 118°13'1 0.8
2016-Sep-25 16:33N 33°45' W 118°13'2 1.7
2016-Sep-25 15:33N 33°44' W 118°12'1 0.8
2016-Sep-25 14:33N 33°45' W 118°12'0 0.0
2016-Sep-25 12:33N 33°45' W 118°12'0 0.0
2016-Sep-25 11:33N 33°45' W 118°12'0 0.0
2016-Sep-25 10:33N 33°45' W 118°12'0 0.0
2016-Sep-25 09:33N 33°45' W 118°12'0 0.0
2016-Sep-25 07:33N 33°45' W 118°12'0 0.0
2016-Sep-25 04:33N 33°45' W 118°12'0 0.0
2016-Sep-25 00:33N 33°45' W 118°12'0 0.0
2016-Sep-24 22:33N 33°45' W 118°12'0 0.0
2016-Sep-24 21:33N 33°45' W 118°12'0 0.0
2016-Sep-24 19:33N 33°45' W 118°12'0 0.0
2016-Sep-24 18:33N 33°45' W 118°12'0 0.0
2016-Sep-24 17:33N 33°45' W 118°12'0 0.0
2016-Sep-24 16:33N 33°45' W 118°12'0 0.0
2016-Sep-24 14:33N 33°45' W 118°12'0 0.0
2016-Sep-24 12:33N 33°45' W 118°12'0 0.0
2016-Sep-24 10:33N 33°45' W 118°12'0 0.0
2016-Sep-24 09:33N 33°45' W 118°12'0 0.0
2016-Sep-24 03:33N 33°45' W 118°12'0 0.0
2016-Sep-24 02:33N 33°45' W 118°12'0 0.0
2016-Sep-24 01:33N 33°45' W 118°12'0 0.0
2016-Sep-24 00:33N 33°45' W 118°12'0 0.0
2016-Sep-23 13:26N 33°45' W 118°12'0 0.0
2016-Sep-23 09:33N 33°45' W 118°12'0 0.0
2016-Sep-23 06:31N 33°45' W 118°12'0 0.0
2016-Sep-23 04:28N 33°45' W 118°12'0 0.0
2016-Sep-23 02:28N 33°45' W 118°12'0 0.0
2016-Sep-23 01:33N 33°45' W 118°12'0 0.0
2016-Sep-23 00:25N 33°45' W 118°12'0 0.0
2016-Sep-22 12:33N 33°45' W 118°12'0 0.0
2016-Sep-22 04:33N 33°45' W 118°12'0 0.0
2016-Sep-22 03:33N 33°45' W 118°12'0 0.0
2016-Sep-22 00:33N 33°45' W 118°12'0 0.0
2016-Sep-21 09:32N 33°45' W 118°12'0 0.0
2016-Sep-21 08:33N 33°45' W 118°12'0 0.0
2016-Sep-20 14:33N 33°45' W 118°12'0 0.0
2016-Sep-20 13:31N 33°45' W 118°12'0 0.0
2016-Sep-20 10:33N 33°45' W 118°12'0 0.0
2016-Sep-20 08:33N 33°45' W 118°12'0 0.0
2016-Sep-20 07:33N 33°45' W 118°12'0 0.0
2016-Sep-20 06:33N 33°45' W 118°12'0 0.0
2016-Sep-20 02:33N 33°45' W 118°12'0 0.0
2016-Sep-19 23:33N 33°45' W 118°12'0 0.0
2016-Sep-19 19:33N 33°45' W 118°12'1 0.7
2016-Sep-19 18:33N 33°44' W 118°12'2 1.0
2016-Sep-19 16:33N 33°45' W 118°10'2 1.1
2016-Sep-19 14:33N 33°45' W 118°12'0 0.0
2016-Sep-19 13:33N 33°45' W 118°12'0 0.0
2016-Sep-19 12:33N 33°45' W 118°12'0 0.0
2016-Sep-19 11:33N 33°45' W 118°12'0 0.0
2016-Sep-19 09:33N 33°45' W 118°12'0 0.0
2016-Sep-19 07:33N 33°45' W 118°12'0 0.0
2016-Sep-19 06:33N 33°45' W 118°12'0 0.0
2016-Sep-19 03:33N 33°45' W 118°12'0 0.0
2016-Sep-19 02:33N 33°45' W 118°12'0 0.0
2016-Sep-19 00:33N 33°45' W 118°12'0 0.0
2016-Sep-18 19:33N 33°45' W 118°12'0 0.0
2016-Sep-18 15:33N 33°45' W 118°12'0 0.0
2016-Sep-18 14:33N 33°45' W 118°12'  
Track history (hours):
 
Tides and Currents Weather Stations Pressure Air Temp Water Temp Dewpoint Dewpoint Depression Visibility Wind Speed Wind Dir Waves Ship Positions

Arapaho

Owner: SAUSE BROTHERS OCEAN TOWING CO INC, LONG BEACH, CA. More information available from US FCC via Universal Licensing System and Coast Guard Vessel Documentation Center.

Last reported at 2016-Sep-28 12:07 UTC. Time now 2016-Sep-28 15:29 UTC.
Position N 33°45' W 118°12'.

Length 37 m; draft 1.5 m.

Type: Towing. MMSI: 367004270.

Date/timePositionNaut miles runAvg speedWind from/ knotsBaromVisibWave heightAir tempDewpointWater temp
2016-Sep-28 12:07N 33°45' W 118°12'0 0.0
2016-Sep-28 08:33N 33°45' W 118°12'0 0.0
2016-Sep-28 01:33N 33°44' W 118°12'2 1.2
2016-Sep-27 23:33N 33°45' W 118°10'2 0.2
2016-Sep-27 10:32N 33°45' W 118°12'0 0.0
2016-Sep-26 08:33N 33°45' W 118°12'0 0.0
2016-Sep-26 02:33N 33°45' W 118°12'0 0.0
2016-Sep-26 01:33N 33°45' W 118°12'3 2.7
2016-Sep-26 00:33N 33°45' W 118°09'3 0.9
2016-Sep-25 21:33N 33°45' W 118°12'2 0.4
2016-Sep-25 17:33N 33°46' W 118°13'1 0.8
2016-Sep-25 16:33N 33°45' W 118°13'2 1.7
2016-Sep-25 15:33N 33°44' W 118°12'1 0.8
2016-Sep-25 14:33N 33°45' W 118°12'0 0.0
2016-Sep-25 12:33N 33°45' W 118°12'0 0.0
2016-Sep-25 11:33N 33°45' W 118°12'0 0.0
2016-Sep-25 10:33N 33°45' W 118°12'0 0.0
2016-Sep-25 09:33N 33°45' W 118°12'0 0.0
2016-Sep-25 07:33N 33°45' W 118°12'0 0.0
2016-Sep-25 04:33N 33°45' W 118°12'0 0.0
2016-Sep-25 00:33N 33°45' W 118°12'0 0.0
2016-Sep-24 22:33N 33°45' W 118°12'0 0.0
2016-Sep-24 21:33N 33°45' W 118°12'0 0.0
2016-Sep-24 19:33N 33°45' W 118°12'0 0.0
2016-Sep-24 18:33N 33°45' W 118°12'0 0.0
2016-Sep-24 17:33N 33°45' W 118°12'0 0.0
2016-Sep-24 16:33N 33°45' W 118°12'0 0.0
2016-Sep-24 14:33N 33°45' W 118°12'0 0.0
2016-Sep-24 12:33N 33°45' W 118°12'0 0.0
2016-Sep-24 10:33N 33°45' W 118°12'0 0.0
2016-Sep-24 09:33N 33°45' W 118°12'0 0.0
2016-Sep-24 03:33N 33°45' W 118°12'0 0.0
2016-Sep-24 02:33N 33°45' W 118°12'0 0.0
2016-Sep-24 01:33N 33°45' W 118°12'0 0.0
2016-Sep-24 00:33N 33°45' W 118°12'0 0.0
2016-Sep-23 13:26N 33°45' W 118°12'0 0.0
2016-Sep-23 09:33N 33°45' W 118°12'0 0.0
2016-Sep-23 06:31N 33°45' W 118°12'0 0.0
2016-Sep-23 04:28N 33°45' W 118°12'0 0.0
2016-Sep-23 02:28N 33°45' W 118°12'0 0.0
2016-Sep-23 01:33N 33°45' W 118°12'0 0.0
2016-Sep-23 00:25N 33°45' W 118°12'0 0.0
2016-Sep-22 12:33N 33°45' W 118°12'0 0.0
2016-Sep-22 04:33N 33°45' W 118°12'0 0.0
2016-Sep-22 03:33N 33°45' W 118°12'0 0.0
2016-Sep-22 00:33N 33°45' W 118°12'0 0.0
2016-Sep-21 09:32N 33°45' W 118°12'0 0.0
2016-Sep-21 08:33N 33°45' W 118°12'0 0.0
2016-Sep-20 14:33N 33°45' W 118°12'0 0.0
2016-Sep-20 13:31N 33°45' W 118°12'0 0.0
2016-Sep-20 10:33N 33°45' W 118°12'0 0.0
2016-Sep-20 08:33N 33°45' W 118°12'0 0.0
2016-Sep-20 07:33N 33°45' W 118°12'0 0.0
2016-Sep-20 06:33N 33°45' W 118°12'0 0.0
2016-Sep-20 02:33N 33°45' W 118°12'0 0.0
2016-Sep-19 23:33N 33°45' W 118°12'0 0.0
2016-Sep-19 19:33N 33°45' W 118°12'1 0.7
2016-Sep-19 18:33N 33°44' W 118°12'2 1.0
2016-Sep-19 16:33N 33°45' W 118°10'2 1.1
2016-Sep-19 14:33N 33°45' W 118°12'0 0.0
2016-Sep-19 13:33N 33°45' W 118°12'0 0.0
2016-Sep-19 12:33N 33°45' W 118°12'0 0.0
2016-Sep-19 11:33N 33°45' W 118°12'0 0.0
2016-Sep-19 09:33N 33°45' W 118°12'0 0.0
2016-Sep-19 07:33N 33°45' W 118°12'0 0.0
2016-Sep-19 06:33N 33°45' W 118°12'0 0.0
2016-Sep-19 03:33N 33°45' W 118°12'0 0.0
2016-Sep-19 02:33N 33°45' W 118°12'0 0.0
2016-Sep-19 00:33N 33°45' W 118°12'0 0.0
2016-Sep-18 19:33N 33°45' W 118°12'0 0.0
2016-Sep-18 15:33N 33°45' W 118°12'0 0.0
2016-Sep-18 14:33N 33°45' W 118°12'  

Dump ship's entire track history